Almont, Michigan
Current Conditions -  °F | °C
As of 5:33 AM on Wednesday 22 Oct 2014 (Local Time) from KD95 Reporting Station
Overcast Overcast  
Wind Chill:   Ceiling: 1700
Heat Index:   Visibility: 10mi
Dew Point:   Wind: 6mph
Humidity: 80%   Direction: 360°N
Pressure: 30.27"   Gusts: NA
Location:  42.92°N, 83.04°W
Report Text: KD95 220933Z AUTO 36005KT 10SM OVC017 06/03 A3027 RMK AO2 T00610028
Loading
Personal Weather Stations






























Interactive Weather Map
Tropical Storm Tracking
New forecast layout! Learn more

10-Day Weather Forecast

Advertisements
Track Severe Weather on mobile